createdAt,value
2018-01-04T00:00:43.490Z,3.00
2018-01-04T00:01:46.048Z,4.30
2018-01-04T00:02:48.561Z,3.28
2018-01-04T00:03:51.108Z,3.05
2018-01-04T00:04:54.393Z,3.53
2018-01-04T00:05:57.677Z,3.33
2018-01-04T00:07:00.961Z,3.87
2018-01-04T00:08:04.284Z,3.35
2018-01-04T00:09:06.798Z,4.05
2018-01-04T00:10:09.314Z,3.65
2018-01-04T00:11:11.838Z,3.75
2018-01-04T00:12:15.168Z,3.92
2018-01-04T00:13:17.689Z,3.62
2018-01-04T00:14:20.978Z,2.53
2018-01-04T00:15:24.265Z,3.55
2018-01-04T00:16:27.546Z,2.90
2018-01-04T00:17:30.865Z,3.33
2018-01-04T00:18:33.418Z,3.85
2018-01-04T00:19:35.936Z,3.72
2018-01-04T00:20:38.458Z,3.30
2018-01-04T00:21:40.981Z,3.03
2018-01-04T00:22:43.504Z,3.75
2018-01-04T00:23:46.068Z,3.75
2018-01-04T00:24:48.592Z,3.03
2018-01-04T00:25:51.868Z,2.55
2018-01-04T00:26:54.380Z,2.60
2018-01-04T00:27:56.893Z,2.15
2018-01-04T00:28:59.444Z,3.58
2018-01-04T00:30:01.966Z,2.85
2018-01-04T00:31:04.478Z,2.65
2018-01-04T00:32:06.990Z,2.47
2018-01-04T00:33:09.541Z,2.58
2018-01-04T00:34:13.004Z,2.60
2018-01-04T00:35:15.519Z,2.90
2018-01-04T00:36:18.037Z,2.70
2018-01-04T00:37:20.549Z,2.85
2018-01-04T00:38:23.116Z,2.95
2018-01-04T00:39:25.673Z,3.12
2018-01-04T00:40:28.322Z,2.20
2018-01-04T00:41:31.605Z,3.03
2018-01-04T00:42:34.895Z,3.67
2018-01-04T00:43:38.178Z,2.60
2018-01-04T00:44:41.497Z,2.70
2018-01-04T00:45:44.037Z,3.70
2018-01-04T00:46:46.553Z,3.45
2018-01-04T00:47:49.114Z,3.12
2018-01-04T00:48:51.636Z,2.70
2018-01-04T00:49:54.156Z,2.62
2018-01-04T00:50:56.700Z,2.03
2018-01-04T00:51:59.265Z,3.25
2018-01-04T00:53:01.769Z,2.78
2018-01-04T00:54:04.281Z,2.72
2018-01-04T00:55:06.843Z,2.90
2018-01-04T00:56:09.358Z,2.47
2018-01-04T00:57:11.877Z,2.65
2018-01-04T00:58:14.530Z,3.03
2018-01-04T00:59:17.838Z,2.30
2018-01-04T01:00:20.350Z,2.20
2018-01-04T01:01:22.868Z,2.17
2018-01-04T01:02:25.403Z,2.70
2018-01-04T01:03:28.745Z,2.60
2018-01-04T01:04:31.276Z,2.17
2018-01-04T01:05:33.801Z,2.40
2018-01-04T01:06:36.427Z,2.92
2018-01-04T01:07:38.952Z,3.03
2018-01-04T01:08:42.231Z,2.30
2018-01-04T01:09:45.533Z,2.03
2018-01-04T01:10:48.087Z,2.80
2018-01-04T01:11:51.369Z,2.83
2018-01-04T01:12:54.653Z,2.67
2018-01-04T01:13:57.933Z,2.35
2018-01-04T01:15:01.212Z,2.53
2018-01-04T01:16:03.771Z,2.33
2018-01-04T01:17:06.297Z,2.33
2018-01-04T01:18:08.836Z,2.28
2018-01-04T01:19:11.357Z,2.58
2018-01-04T01:20:13.873Z,2.55
2018-01-04T01:21:16.423Z,2.47
2018-01-04T01:22:18.938Z,2.10
2018-01-04T01:23:21.458Z,2.15
2018-01-04T01:24:24.816Z,2.25
2018-01-04T01:25:27.390Z,2.25
2018-01-04T01:26:29.905Z,2.53
2018-01-04T01:27:32.430Z,2.45
2018-01-04T01:28:35.761Z,2.80
2018-01-04T01:29:38.277Z,2.47
2018-01-04T01:30:41.564Z,2.85
2018-01-04T01:31:44.845Z,2.40
2018-01-04T01:32:48.133Z,3.00
2018-01-04T01:33:51.453Z,3.25
2018-01-04T01:34:53.961Z,2.60
2018-01-04T01:35:56.476Z,3.30
2018-01-04T01:36:59.014Z,2.75
2018-01-04T01:38:02.302Z,2.70
2018-01-04T01:39:05.621Z,3.55
2018-01-04T01:40:08.132Z,3.20
2018-01-04T01:41:10.645Z,3.33
2018-01-04T01:42:13.189Z,3.30
2018-01-04T01:43:15.742Z,3.55
2018-01-04T01:44:19.026Z,2.67
2018-01-04T01:45:22.316Z,3.15
2018-01-04T01:46:25.609Z,4.65
2018-01-04T01:47:28.173Z,4.62
2018-01-04T01:48:31.501Z,2.83
2018-01-04T01:49:34.022Z,3.00
2018-01-04T01:50:36.548Z,3.53
2018-01-04T01:51:39.062Z,3.80
2018-01-04T01:52:41.584Z,3.22
2018-01-04T01:53:44.125Z,3.35
2018-01-04T01:54:46.637Z,4.32
2018-01-04T01:55:49.960Z,3.70
2018-01-04T01:56:52.472Z,4.40
2018-01-04T01:57:54.989Z,4.93
2018-01-04T01:58:57.557Z,3.62
2018-01-04T02:00:00.101Z,3.97
2018-01-04T02:01:03.394Z,4.37
2018-01-04T02:02:05.917Z,4.78
2018-01-04T02:03:08.437Z,4.32
2018-01-04T02:04:10.993Z,4.20
2018-01-04T02:05:13.514Z,5.12
2018-01-04T02:06:16.036Z,4.65
2018-01-04T02:07:18.557Z,5.28
2018-01-04T02:08:21.072Z,4.95
2018-01-04T02:09:23.629Z,4.43
2018-01-04T02:10:26.242Z,4.70
2018-01-04T02:11:28.799Z,4.25
2018-01-04T02:12:31.325Z,5.62
2018-01-04T02:13:33.847Z,4.55
2018-01-04T02:14:36.376Z,5.20
2018-01-04T02:15:38.934Z,4.95
2018-01-04T02:16:41.458Z,3.85
2018-01-04T02:17:43.969Z,4.12
2018-01-04T02:18:58.295Z,4.87
2018-01-04T02:20:12.617Z,4.93
2018-01-04T02:21:27.666Z,4.28
2018-01-04T02:22:42.776Z,4.10
2018-01-04T02:23:51.092Z,4.82
2018-01-04T02:25:05.623Z,4.72
2018-01-04T02:26:08.137Z,4.60
2018-01-04T02:27:22.492Z,4.93
2018-01-04T02:28:37.560Z,5.55
2018-01-04T02:29:52.657Z,4.85
2018-01-04T02:31:07.142Z,4.18
2018-01-04T02:32:21.497Z,4.95
2018-01-04T02:33:36.671Z,7.85
2018-01-04T02:34:51.877Z,5.65
2018-01-04T02:36:06.275Z,4.50
2018-01-04T02:39:06.860Z,5.15
2018-01-04T02:40:21.193Z,4.93
2018-01-04T02:41:35.722Z,4.32
2018-01-04T02:42:50.090Z,4.80
2018-01-04T02:43:59.394Z,5.07
2018-01-04T02:45:13.849Z,4.05
2018-01-04T02:46:31.186Z,4.40
2018-01-04T02:47:33.714Z,5.03
2018-01-04T02:48:36.274Z,5.05
2018-01-04T02:49:38.832Z,4.30
2018-01-04T02:50:42.126Z,4.75
2018-01-04T02:51:44.651Z,4.93
2018-01-04T02:52:47.160Z,4.97
2018-01-04T02:53:49.683Z,5.28
2018-01-04T02:54:52.263Z,4.95
2018-01-04T02:55:55.557Z,4.20
2018-01-04T02:56:58.872Z,4.53
2018-01-04T02:58:01.390Z,4.90
2018-01-04T02:59:03.909Z,4.00
2018-01-04T03:00:06.477Z,5.03
2018-01-04T03:01:08.991Z,3.67
2018-01-04T03:02:12.316Z,4.60
2018-01-04T03:03:14.828Z,5.10
2018-01-04T03:04:17.349Z,4.65
2018-01-04T03:05:19.872Z,5.05
2018-01-04T03:06:23.197Z,4.35
2018-01-04T03:07:25.740Z,4.72
2018-01-04T03:08:29.021Z,7.60
2018-01-04T03:09:32.312Z,5.47
2018-01-04T03:10:34.869Z,4.50
2018-01-04T03:11:38.146Z,4.60
2018-01-04T03:12:41.430Z,5.65
2018-01-04T03:13:44.711Z,5.53
2018-01-04T03:14:47.225Z,5.68
2018-01-04T03:15:49.810Z,4.00
2018-01-04T03:16:52.338Z,5.47
2018-01-04T03:17:54.866Z,3.85
2018-01-04T03:18:57.397Z,5.05
2018-01-04T03:19:59.917Z,4.85
2018-01-04T03:21:02.482Z,5.22
2018-01-04T03:22:10.720Z,4.10
2018-01-04T03:23:18.793Z,4.50
2018-01-04T03:24:21.369Z,4.60
2018-01-04T03:25:29.538Z,5.40
2018-01-04T03:26:38.565Z,4.50
2018-01-04T03:27:47.449Z,4.93
2018-01-04T03:28:55.753Z,5.07
2018-01-04T03:30:03.938Z,5.50
2018-01-04T03:31:12.162Z,4.30
2018-01-04T03:32:21.110Z,4.20
2018-01-04T03:33:29.262Z,5.70
2018-01-04T03:34:37.491Z,3.80
2018-01-04T03:35:46.453Z,4.40
2018-01-04T03:36:54.714Z,5.97
2018-01-04T03:38:02.822Z,4.72
2018-01-04T03:40:50.604Z,4.57
2018-01-04T03:41:58.789Z,5.05
2018-01-04T03:43:06.977Z,4.62
2018-01-04T03:44:15.085Z,5.10
2018-01-04T03:45:23.363Z,5.25
2018-01-04T03:46:32.291Z,4.47
2018-01-04T03:47:40.475Z,5.07
2018-01-04T03:48:48.790Z,5.07
2018-01-04T03:49:57.074Z,4.97
2018-01-04T03:51:05.212Z,5.65
2018-01-04T03:52:13.414Z,5.70
2018-01-04T03:53:21.669Z,5.30
2018-01-04T03:54:29.980Z,4.60
2018-01-04T03:55:38.146Z,4.93
2018-01-04T03:56:47.085Z,5.00
2018-01-04T03:57:54.448Z,4.70
2018-01-04T03:59:02.637Z,4.45
2018-01-04T04:00:11.596Z,5.22
2018-01-04T04:01:19.876Z,5.20
2018-01-04T04:02:28.006Z,4.60
2018-01-04T04:03:30.553Z,4.43
2018-01-04T04:04:38.905Z,4.57
2018-01-04T04:05:47.025Z,4.87
2018-01-04T04:08:36.185Z,5.03
2018-01-04T04:09:39.504Z,4.53
2018-01-04T04:10:42.030Z,5.40
2018-01-04T04:11:45.317Z,5.25
2018-01-04T04:12:48.601Z,5.55
2018-01-04T04:13:51.912Z,4.55
2018-01-04T04:14:54.461Z,4.03
2018-01-04T04:15:56.969Z,6.53
2018-01-04T04:16:59.497Z,6.90
2018-01-04T04:18:02.018Z,5.60
2018-01-04T04:19:04.578Z,4.45
2018-01-04T04:20:07.088Z,5.30
2018-01-04T04:21:10.377Z,6.07
2018-01-04T04:22:12.890Z,6.35
2018-01-04T04:23:15.444Z,5.25
2018-01-04T04:24:17.969Z,5.97
2018-01-04T04:25:20.500Z,6.75
2018-01-04T04:26:23.007Z,4.65
2018-01-04T04:27:25.529Z,5.35
2018-01-04T04:28:28.142Z,5.45
2018-01-04T04:29:31.402Z,5.43
2018-01-04T04:30:34.682Z,6.72
2018-01-04T04:31:37.201Z,6.12
2018-01-04T04:32:39.748Z,6.80
2018-01-04T04:33:42.265Z,6.53
2018-01-04T04:34:44.780Z,6.37
2018-01-04T04:35:47.308Z,6.55
2018-01-04T04:36:49.865Z,4.95
2018-01-04T04:37:52.428Z,6.78
2018-01-04T04:38:54.941Z,5.60
2018-01-04T04:39:57.465Z,3.97
2018-01-04T04:40:59.979Z,5.70
2018-01-04T04:42:02.537Z,5.00
2018-01-04T04:43:05.090Z,5.45
2018-01-04T04:44:08.376Z,5.30
2018-01-04T04:45:11.657Z,5.97
2018-01-04T04:46:14.952Z,5.12
2018-01-04T04:47:17.552Z,5.20
2018-01-04T04:48:20.069Z,5.32
2018-01-04T04:49:23.354Z,6.12
2018-01-04T04:50:26.640Z,4.80
2018-01-04T04:51:29.921Z,5.53
2018-01-04T04:52:33.241Z,5.93
2018-01-04T04:53:35.753Z,5.22
2018-01-04T04:54:38.264Z,5.05
2018-01-04T04:55:40.785Z,6.40
2018-01-04T04:56:44.073Z,4.80
2018-01-04T04:57:46.620Z,4.40
2018-01-04T04:58:49.182Z,4.68
2018-01-04T04:59:51.696Z,5.40
2018-01-04T05:00:54.216Z,4.97
2018-01-04T05:01:56.743Z,5.00
2018-01-04T05:02:59.252Z,6.22
2018-01-04T05:04:01.797Z,5.85
2018-01-04T05:05:04.318Z,5.30
2018-01-04T05:06:06.849Z,5.65
2018-01-04T05:07:09.368Z,4.65
2018-01-04T05:08:11.886Z,5.78
2018-01-04T05:09:14.444Z,5.60
2018-01-04T05:10:16.987Z,7.95
2018-01-04T05:11:19.506Z,5.37
2018-01-04T05:12:22.795Z,5.65
2018-01-04T05:13:25.329Z,4.65
2018-01-04T05:14:27.921Z,5.82
2018-01-04T05:15:31.218Z,6.72
2018-01-04T05:16:34.496Z,5.15
2018-01-04T05:17:37.792Z,6.03
2018-01-04T05:18:40.341Z,6.15
2018-01-04T05:19:43.681Z,5.25
2018-01-04T05:20:46.256Z,5.50
2018-01-04T05:21:48.778Z,5.55
2018-01-04T05:22:51.293Z,5.45
2018-01-04T05:23:53.805Z,5.85
2018-01-04T05:24:56.333Z,5.45
2018-01-04T05:25:58.897Z,5.78
2018-01-04T05:27:01.417Z,6.07
2018-01-04T05:28:03.924Z,5.18
2018-01-04T05:29:06.444Z,6.62
2018-01-04T05:30:08.968Z,6.22
2018-01-04T05:31:11.533Z,5.65
2018-01-04T05:32:14.049Z,4.57
2018-01-04T05:33:16.565Z,6.93
2018-01-04T05:34:19.088Z,6.00
2018-01-04T05:35:21.605Z,6.37
2018-01-04T05:36:24.925Z,6.43
2018-01-04T05:37:27.437Z,5.97
2018-01-04T05:38:29.956Z,6.90
2018-01-04T05:39:32.473Z,4.93
2018-01-04T05:40:34.988Z,5.18
2018-01-04T05:41:37.544Z,5.05
2018-01-04T05:42:40.060Z,5.90
2018-01-04T05:43:42.574Z,5.70
2018-01-04T05:44:45.098Z,4.97
2018-01-04T05:45:47.610Z,6.18
2018-01-04T05:46:50.156Z,5.37
2018-01-04T05:47:52.676Z,5.03
2018-01-04T05:48:55.238Z,5.05
2018-01-04T05:49:57.769Z,4.72
2018-01-04T05:51:00.297Z,5.87
2018-01-04T05:52:02.813Z,5.20
2018-01-04T05:53:05.321Z,6.55
2018-01-04T05:54:07.867Z,5.45
2018-01-04T05:55:10.386Z,5.28
2018-01-04T05:56:12.904Z,6.00
2018-01-04T05:57:15.429Z,7.72
2018-01-04T05:58:17.968Z,5.85
2018-01-04T05:59:21.293Z,5.90
2018-01-04T06:00:23.812Z,5.78
2018-01-04T06:01:26.330Z,6.25
2018-01-04T06:02:28.853Z,4.82
2018-01-04T06:03:32.137Z,5.95
2018-01-04T06:04:35.448Z,5.10
2018-01-04T06:05:37.962Z,5.25
2018-01-04T06:06:40.491Z,5.20
2018-01-04T06:07:43.014Z,5.95
2018-01-04T06:08:45.563Z,5.10
2018-01-04T06:09:48.078Z,5.57
2018-01-04T06:10:50.626Z,5.55
2018-01-04T06:11:53.918Z,6.00
2018-01-04T06:12:57.209Z,5.10
2018-01-04T06:13:59.773Z,6.12
2018-01-04T06:15:02.302Z,5.85
2018-01-04T06:16:04.812Z,4.60
2018-01-04T06:17:07.328Z,5.32
2018-01-04T06:18:09.838Z,6.40
2018-01-04T06:19:12.393Z,6.68
2018-01-04T06:20:15.682Z,3.90
2018-01-04T06:21:18.206Z,5.30
2018-01-04T06:22:20.729Z,5.85
2018-01-04T06:23:23.273Z,5.65
2018-01-04T06:24:26.565Z,6.82
2018-01-04T06:25:29.111Z,6.35
2018-01-04T06:26:32.398Z,5.72
2018-01-04T06:27:35.682Z,7.62
2018-01-04T06:28:39.013Z,6.50
2018-01-04T06:29:41.541Z,5.47
2018-01-04T06:30:44.833Z,5.85
2018-01-04T06:31:47.350Z,6.50
2018-01-04T06:32:49.856Z,6.05
2018-01-04T06:33:53.176Z,5.07
2018-01-04T06:34:55.693Z,4.90
2018-01-04T06:35:58.367Z,5.28
2018-01-04T06:37:01.648Z,6.82
2018-01-04T06:38:04.946Z,5.80
2018-01-04T06:39:08.265Z,6.05
2018-01-04T06:40:10.834Z,5.60
2018-01-04T06:41:13.376Z,5.65
2018-01-04T06:42:15.898Z,5.35
2018-01-04T06:43:18.420Z,7.28
2018-01-04T06:44:20.940Z,6.57
2018-01-04T06:45:23.494Z,6.22
2018-01-04T06:46:26.022Z,6.12
2018-01-04T06:47:28.546Z,6.43
2018-01-04T06:48:31.873Z,5.80
2018-01-04T06:49:34.396Z,6.20
2018-01-04T06:50:37.682Z,5.18
2018-01-04T06:51:40.217Z,6.53
2018-01-04T06:52:42.754Z,6.10
2018-01-04T06:53:45.311Z,5.70
2018-01-04T06:54:47.825Z,7.57
2018-01-04T06:55:50.380Z,7.22
2018-01-04T06:56:52.894Z,5.90
2018-01-04T06:57:55.414Z,6.37
2018-01-04T06:58:57.929Z,5.85
2018-01-04T07:00:00.461Z,6.20
2018-01-04T07:01:03.015Z,6.30
2018-01-04T07:02:05.543Z,6.53
2018-01-04T07:03:08.057Z,5.78
2018-01-04T07:04:10.592Z,6.28
2018-01-04T07:05:13.100Z,5.50
2018-01-04T07:06:16.432Z,6.10
2018-01-04T07:07:18.957Z,7.30
2018-01-04T07:08:22.236Z,6.55
2018-01-04T07:09:25.521Z,5.53
2018-01-04T07:10:28.805Z,5.72
2018-01-04T07:11:32.120Z,5.75
2018-01-04T07:12:34.638Z,6.72
2018-01-04T07:13:37.166Z,7.47
2018-01-04T07:14:39.697Z,6.53
2018-01-04T07:15:42.986Z,6.82
2018-01-04T07:16:45.551Z,6.35
2018-01-04T07:17:48.864Z,7.37
2018-01-04T07:18:51.381Z,5.62
2018-01-04T07:19:53.894Z,6.90
2018-01-04T07:20:56.419Z,7.00
2018-01-04T07:21:59.736Z,6.20
2018-01-04T07:23:02.255Z,6.55
2018-01-04T07:24:04.789Z,6.30
2018-01-04T07:25:07.306Z,6.00
2018-01-04T07:26:10.586Z,6.90
2018-01-04T07:27:13.909Z,5.78
2018-01-04T07:29:25.358Z,4.87
2018-01-04T07:30:28.641Z,6.15
2018-01-04T07:31:31.922Z,6.15
2018-01-04T07:32:35.297Z,5.68
2018-01-04T07:33:37.810Z,5.50
2018-01-04T07:34:40.337Z,5.78
2018-01-04T07:35:43.616Z,5.90
2018-01-04T07:36:46.898Z,6.47
2018-01-04T07:37:50.217Z,6.30
2018-01-04T07:38:52.729Z,7.00
2018-01-04T07:39:55.249Z,5.62
2018-01-04T07:40:57.759Z,6.93
2018-01-04T07:42:00.310Z,5.75
2018-01-04T07:43:02.885Z,5.87
2018-01-04T07:44:05.406Z,5.70
2018-01-04T07:45:07.930Z,6.18
2018-01-04T07:46:10.449Z,6.60
2018-01-04T07:47:13.012Z,6.32
2018-01-04T07:48:15.537Z,5.97
2018-01-04T07:49:18.052Z,6.97
2018-01-04T07:50:20.571Z,6.50
2018-01-04T07:51:23.859Z,5.60
2018-01-04T07:52:27.177Z,5.60
2018-01-04T07:53:29.700Z,6.70
2018-01-04T07:54:32.217Z,7.28
2018-01-04T07:55:34.762Z,6.60
2018-01-04T07:56:38.049Z,5.05
2018-01-04T07:57:40.612Z,6.45
2018-01-04T07:58:43.130Z,5.57
2018-01-04T07:59:45.653Z,6.47
2018-01-04T08:00:48.160Z,6.30
2018-01-04T08:01:50.689Z,5.40
2018-01-04T08:02:53.234Z,6.35
2018-01-04T08:03:56.544Z,6.30
2018-01-04T08:04:59.056Z,5.43
2018-01-04T08:06:01.612Z,6.65
2018-01-04T08:07:04.132Z,5.43
2018-01-04T08:08:06.650Z,5.85
2018-01-04T08:09:09.164Z,5.35
2018-01-04T08:10:11.709Z,5.43
2018-01-04T08:11:14.995Z,6.43
2018-01-04T08:12:18.279Z,5.87
2018-01-04T08:13:21.561Z,6.57
2018-01-04T08:14:24.838Z,4.55
2018-01-04T08:15:28.148Z,5.80
2018-01-04T08:16:30.661Z,5.78
2018-01-04T08:17:33.217Z,5.22
2018-01-04T08:18:35.733Z,5.43
2018-01-04T08:19:39.017Z,5.80
2018-01-04T08:20:41.577Z,5.80
2018-01-04T08:21:44.852Z,4.68
2018-01-04T08:22:48.138Z,4.87
2018-01-04T08:23:51.418Z,5.32
2018-01-04T08:24:54.734Z,5.32
2018-01-04T08:25:57.257Z,5.57
2018-01-04T08:26:59.777Z,6.03
2018-01-04T08:28:02.296Z,5.57
2018-01-04T08:29:05.608Z,5.10
2018-01-04T08:30:08.260Z,4.57
2018-01-04T08:31:11.544Z,5.43
2018-01-04T08:32:14.837Z,5.28
2018-01-04T08:33:17.358Z,4.20
2018-01-04T08:34:19.889Z,5.43
2018-01-04T08:35:22.441Z,4.85
2018-01-04T08:36:24.953Z,4.78
2018-01-04T08:37:27.465Z,4.47
2018-01-04T08:38:29.978Z,5.40
2018-01-04T08:39:32.502Z,4.30
2018-01-04T08:40:35.049Z,4.68
2018-01-04T08:41:38.331Z,5.12
2018-01-04T08:42:41.612Z,3.60
2018-01-04T08:43:44.893Z,3.92
2018-01-04T08:44:48.210Z,4.62
2018-01-04T08:45:50.739Z,4.95
2018-01-04T08:46:53.259Z,5.28
2018-01-04T08:47:55.829Z,5.35
2018-01-04T08:48:58.342Z,3.80
2018-01-04T08:50:00.865Z,3.60
2018-01-04T08:51:03.380Z,3.40
2018-01-04T08:52:06.660Z,3.62
2018-01-04T08:53:09.988Z,4.78
2018-01-04T08:54:12.492Z,4.60
2018-01-04T08:55:15.016Z,3.87
2018-01-04T08:56:17.537Z,4.00
2018-01-04T08:57:20.085Z,3.90
2018-01-04T08:58:22.647Z,4.30
2018-01-04T08:59:25.165Z,3.75
2018-01-04T09:00:27.676Z,3.72
2018-01-04T09:01:30.197Z,4.00
2018-01-04T09:02:32.726Z,3.67
2018-01-04T09:03:35.284Z,3.95
2018-01-04T09:04:37.801Z,4.62
2018-01-04T09:05:40.328Z,4.28
2018-01-04T09:06:43.627Z,3.92
2018-01-04T09:07:46.918Z,4.95
2018-01-04T09:08:49.470Z,4.40
2018-01-04T09:09:52.764Z,6.30
2018-01-04T09:10:56.040Z,6.45
2018-01-04T09:11:59.350Z,4.53
2018-01-04T09:13:03.033Z,4.55
2018-01-04T09:14:05.586Z,4.50
2018-01-04T09:15:08.877Z,4.10
2018-01-04T09:16:12.154Z,3.97
2018-01-04T09:17:15.441Z,4.32
2018-01-04T09:18:18.721Z,3.45
2018-01-04T09:19:22.047Z,4.00
2018-01-04T09:20:24.561Z,3.95
2018-01-04T09:21:27.848Z,4.43
2018-01-04T09:22:31.132Z,5.12
2018-01-04T09:23:34.414Z,4.60
2018-01-04T09:24:37.831Z,5.50
2018-01-04T09:25:40.346Z,4.50
2018-01-04T09:26:42.856Z,4.45
2018-01-04T09:27:45.389Z,4.05
2018-01-04T09:28:47.922Z,5.45
2018-01-04T09:29:50.644Z,4.68
2018-01-04T09:30:53.937Z,4.95
2018-01-04T09:31:56.489Z,4.37
2018-01-04T09:32:59.772Z,5.40
2018-01-04T09:34:03.049Z,4.90
2018-01-04T09:35:06.329Z,5.55
2018-01-04T09:36:08.845Z,4.40
2018-01-04T09:37:11.397Z,5.22
2018-01-04T09:38:13.906Z,4.00
2018-01-04T09:39:16.420Z,5.00
2018-01-04T09:40:18.952Z,3.90
2018-01-04T09:41:21.466Z,4.12
2018-01-04T09:42:24.021Z,4.78
2018-01-04T09:43:26.540Z,5.18
2018-01-04T09:44:29.054Z,3.78
2018-01-04T09:45:31.586Z,5.32
2018-01-04T09:46:34.868Z,4.90
2018-01-04T09:47:38.193Z,5.00
2018-01-04T09:48:47.364Z,4.75
2018-01-04T09:49:49.894Z,4.72
2018-01-04T09:50:52.414Z,4.40
2018-01-04T09:51:55.686Z,5.00
2018-01-04T09:52:58.259Z,4.53
2018-01-04T09:54:00.777Z,5.00
2018-01-04T09:55:03.293Z,4.50
2018-01-04T09:56:06.575Z,4.55
2018-01-04T09:57:09.094Z,4.72
2018-01-04T09:58:11.648Z,5.00
2018-01-04T09:59:14.162Z,4.80
2018-01-04T10:00:16.680Z,4.22
2018-01-04T10:01:19.213Z,5.10
2018-01-04T10:02:22.497Z,4.40
2018-01-04T10:03:25.814Z,4.93
2018-01-04T10:04:28.333Z,4.90
2018-01-04T10:05:30.853Z,5.47
2018-01-04T10:06:33.373Z,4.70
2018-01-04T10:07:36.665Z,6.12
2018-01-04T10:08:39.977Z,4.75
2018-01-04T10:09:42.504Z,5.57
2018-01-04T10:10:45.782Z,5.57
2018-01-04T10:11:48.341Z,4.68
2018-01-04T10:12:50.984Z,4.65
2018-01-04T10:13:53.537Z,6.57
2018-01-04T10:14:56.054Z,5.40
2018-01-04T10:15:58.577Z,4.10
2018-01-04T10:17:01.113Z,5.43
2018-01-04T10:18:03.629Z,4.50
2018-01-04T10:19:06.168Z,4.47
2018-01-04T10:20:08.688Z,4.68
2018-01-04T10:21:12.000Z,4.93
2018-01-04T10:22:14.518Z,5.22
2018-01-04T10:23:17.064Z,4.68
2018-01-04T10:24:19.579Z,4.37
2018-01-04T10:25:22.861Z,4.65
2018-01-04T10:26:26.176Z,4.60
2018-01-04T10:27:28.688Z,5.90
2018-01-04T10:28:31.209Z,6.25
2018-01-04T10:29:33.732Z,4.05
2018-01-04T10:30:37.053Z,4.60
2018-01-04T10:31:39.578Z,5.97
2018-01-04T10:32:42.103Z,4.70
2018-01-04T10:33:44.616Z,5.50
2018-01-04T10:34:47.897Z,5.90
2018-01-04T10:35:51.222Z,4.80
2018-01-04T10:36:53.738Z,4.62
2018-01-04T10:37:56.267Z,3.83
2018-01-04T10:38:58.839Z,4.72
2018-01-04T10:40:02.128Z,3.50
2018-01-04T10:41:04.680Z,4.20
2018-01-04T10:42:07.197Z,5.60
2018-01-04T10:43:10.514Z,4.05
2018-01-04T10:44:13.036Z,4.32
2018-01-04T10:45:15.545Z,4.22
2018-01-04T10:46:18.064Z,4.35
2018-01-04T10:47:20.585Z,4.75
2018-01-04T10:48:23.144Z,4.72
2018-01-04T10:49:25.708Z,4.57
2018-01-04T10:50:28.221Z,4.55
2018-01-04T10:51:30.740Z,3.45
2018-01-04T10:52:33.284Z,4.15
2018-01-04T10:53:36.577Z,3.58
2018-01-04T10:54:39.125Z,4.30
2018-01-04T10:55:42.413Z,5.65
2018-01-04T10:56:45.733Z,4.15
2018-01-04T10:57:48.288Z,5.20
2018-01-04T10:58:50.806Z,4.50
2018-01-04T10:59:53.325Z,4.43
2018-01-04T11:00:55.876Z,4.55
2018-01-04T11:01:58.403Z,4.40
2018-01-04T11:03:00.941Z,5.60
2018-01-04T11:04:03.464Z,4.37
2018-01-04T11:05:06.757Z,4.12
2018-01-04T11:06:09.305Z,4.53
2018-01-04T11:07:12.591Z,3.92
2018-01-04T11:08:15.880Z,4.20
2018-01-04T11:09:19.168Z,5.20
2018-01-04T11:10:22.456Z,4.75
2018-01-04T11:11:25.002Z,5.25
2018-01-04T11:12:28.286Z,4.53
2018-01-04T11:13:31.572Z,4.05
2018-01-04T11:14:34.862Z,4.68
2018-01-04T11:15:38.213Z,5.00
2018-01-04T11:16:40.737Z,4.18
2018-01-04T11:17:43.261Z,4.82
2018-01-04T11:18:45.901Z,4.00
2018-01-04T11:19:48.416Z,4.35
2018-01-04T11:20:51.745Z,4.57
2018-01-04T11:21:54.272Z,4.30
2018-01-04T11:22:57.561Z,5.07
2018-01-04T11:24:00.093Z,4.70
2018-01-04T11:25:02.653Z,4.85
2018-01-04T11:26:05.214Z,5.15
2018-01-04T11:27:07.735Z,5.68
2018-01-04T11:28:10.257Z,5.05
2018-01-04T11:29:12.788Z,4.53
2018-01-04T11:30:15.304Z,4.40
2018-01-04T11:31:18.621Z,4.10
2018-01-04T11:32:21.128Z,4.55
2018-01-04T11:33:23.642Z,4.40
2018-01-04T11:34:26.156Z,4.75
2018-01-04T11:35:28.702Z,4.12
2018-01-04T11:36:31.221Z,5.12
2018-01-04T11:37:34.542Z,4.22
2018-01-04T11:38:37.067Z,4.90
2018-01-04T11:39:40.346Z,4.97
2018-01-04T11:40:42.906Z,5.10
2018-01-04T11:41:45.414Z,3.70
2018-01-04T11:42:47.973Z,4.12
2018-01-04T11:43:50.491Z,4.85
2018-01-04T11:44:53.010Z,3.95
2018-01-04T11:45:55.561Z,4.00
2018-01-04T11:46:58.101Z,4.60
2018-01-04T11:48:00.612Z,4.55
2018-01-04T11:49:03.185Z,5.97
2018-01-04T11:50:05.708Z,5.85
2018-01-04T11:51:08.264Z,5.68
2018-01-04T11:52:10.785Z,5.25
2018-01-04T11:53:13.305Z,4.55
2018-01-04T11:54:15.822Z,4.87
2018-01-04T11:55:18.350Z,4.80
2018-01-04T11:56:21.662Z,4.20
2018-01-04T11:57:24.184Z,4.80
2018-01-04T11:58:26.708Z,4.82
2018-01-04T11:59:29.305Z,4.12
2018-01-04T12:00:31.804Z,5.47
2018-01-04T12:01:35.087Z,5.25
2018-01-04T12:02:37.605Z,4.55
2018-01-04T12:03:40.123Z,5.93
2018-01-04T12:04:42.717Z,4.25
2018-01-04T12:05:45.248Z,4.45
2018-01-04T12:06:48.568Z,5.00
2018-01-04T12:07:51.091Z,4.80
2018-01-04T12:08:54.377Z,5.97
2018-01-04T12:09:57.706Z,4.75
2018-01-04T12:11:00.228Z,5.25
2018-01-04T12:12:03.509Z,5.15
2018-01-04T12:13:06.791Z,5.12
2018-01-04T12:14:10.078Z,4.80
2018-01-04T12:15:13.393Z,4.45
2018-01-04T12:16:15.910Z,5.18
2018-01-04T12:17:18.425Z,5.68
2018-01-04T12:18:20.963Z,5.47
2018-01-04T12:19:24.260Z,5.57
2018-01-04T12:20:26.815Z,5.18
2018-01-04T12:21:30.101Z,5.60
2018-01-04T12:22:32.629Z,6.05
2018-01-04T12:23:35.146Z,6.20
2018-01-04T12:24:37.662Z,4.80
2018-01-04T12:25:40.218Z,5.70
2018-01-04T12:26:42.778Z,5.40
2018-01-04T12:27:45.293Z,4.43
2018-01-04T12:28:48.613Z,5.53
2018-01-04T12:29:51.139Z,5.07
2018-01-04T12:30:54.418Z,5.25
2018-01-04T12:31:57.737Z,6.68
2018-01-04T12:33:00.295Z,6.32
2018-01-04T12:34:02.809Z,6.25
2018-01-04T12:35:05.336Z,5.90
2018-01-04T12:36:07.844Z,5.68
2018-01-04T12:37:10.363Z,5.05
2018-01-04T12:38:12.929Z,6.25
2018-01-04T12:39:15.454Z,4.93
2018-01-04T12:40:17.970Z,6.00
2018-01-04T12:41:20.505Z,4.85
2018-01-04T12:42:23.800Z,6.25
2018-01-04T12:43:26.389Z,5.10
2018-01-04T12:44:28.918Z,5.80
2018-01-04T12:45:32.196Z,3.97
2018-01-04T12:46:35.481Z,6.15
2018-01-04T12:47:38.758Z,5.62
2018-01-04T12:48:41.305Z,3.65
2018-01-04T12:49:43.873Z,3.50
2018-01-04T12:50:46.387Z,4.72
2018-01-04T12:51:48.909Z,5.03
2018-01-04T12:52:51.469Z,5.72
2018-01-04T12:53:53.998Z,6.80
2018-01-04T12:54:56.545Z,5.28
2018-01-04T12:55:59.070Z,5.85
2018-01-04T12:57:01.593Z,5.25
2018-01-04T12:58:04.104Z,5.15
2018-01-04T12:59:06.617Z,5.15
2018-01-04T13:00:09.177Z,6.62
2018-01-04T13:01:11.690Z,4.22
2018-01-04T13:02:14.216Z,4.72
2018-01-04T13:03:16.729Z,5.32
2018-01-04T13:04:19.245Z,5.47
2018-01-04T13:05:21.824Z,4.50
2018-01-04T13:06:24.344Z,5.75
2018-01-04T13:07:26.867Z,6.10
2018-01-04T13:08:29.387Z,4.43
2018-01-04T13:09:32.671Z,7.32
2018-01-04T13:10:35.997Z,7.40
2018-01-04T13:11:38.512Z,4.50
2018-01-04T13:12:41.806Z,5.53
2018-01-04T13:13:45.096Z,4.15
2018-01-04T13:14:48.381Z,3.62
2018-01-04T13:15:50.977Z,4.30
2018-01-04T13:16:54.269Z,4.53
2018-01-04T13:17:56.802Z,3.83
2018-01-04T13:18:59.432Z,4.15
2018-01-04T13:20:01.956Z,3.53
2018-01-04T13:21:04.513Z,5.10
2018-01-04T13:22:07.032Z,4.62
2018-01-04T13:23:09.577Z,4.10
2018-01-04T13:24:12.089Z,3.50
2018-01-04T13:25:15.426Z,3.90
2018-01-04T13:26:17.943Z,5.10
2018-01-04T13:27:21.224Z,4.22
2018-01-04T13:28:24.500Z,4.05
2018-01-04T13:29:27.792Z,4.10
2018-01-04T13:30:31.110Z,3.37
2018-01-04T13:31:33.639Z,4.25
2018-01-04T13:32:36.960Z,3.00
2018-01-04T13:33:39.477Z,3.58
2018-01-04T13:34:41.985Z,3.30
2018-01-04T13:35:44.497Z,3.58
2018-01-04T13:36:47.061Z,3.33
2018-01-04T13:37:49.581Z,2.85
2018-01-04T13:38:52.083Z,2.70
2018-01-04T13:39:54.597Z,3.20
2018-01-04T13:40:57.109Z,2.45
2018-01-04T13:41:59.657Z,2.72
2018-01-04T13:43:02.209Z,2.70
2018-01-04T13:44:04.728Z,3.12
2018-01-04T13:45:07.246Z,3.33
2018-01-04T13:46:09.772Z,3.03
2018-01-04T13:47:13.079Z,2.55
2018-01-04T13:48:15.608Z,2.90
2018-01-04T13:49:18.893Z,3.03
2018-01-04T13:50:21.420Z,3.72
2018-01-04T13:51:23.930Z,2.40
2018-01-04T13:52:27.259Z,2.85
2018-01-04T13:53:29.773Z,2.87
2018-01-04T13:54:32.288Z,3.03
2018-01-04T13:55:34.812Z,2.40
2018-01-04T13:56:37.327Z,2.78
2018-01-04T13:57:39.880Z,3.05
2018-01-04T13:58:42.421Z,1.90
2018-01-04T13:59:45.697Z,1.30
2018-01-04T14:00:48.974Z,2.08
2018-01-04T14:01:51.492Z,1.87
2018-01-04T14:02:54.033Z,2.30
2018-01-04T14:03:56.541Z,1.75
2018-01-04T14:04:59.049Z,1.50
2018-01-04T14:06:02.361Z,1.45
2018-01-04T14:07:04.877Z,1.77
2018-01-04T14:08:07.393Z,2.03
2018-01-04T14:09:09.977Z,1.95